Terminal Aerodrome Forecast
Issued by NWS

Current Version | Previous Version | Text Only | Print | Product List | Glossary On
Versions: 1 2 3 4 5 6 7 8 9 10 11 12 13 14 15 16 17 18 19 20 21 22 23 24 25
000
FTUS45 KLKN 080520
TAFWMC
TAF
KWMC 080520Z 0806/0906 07007KT P6SM -SHSN SCT025 OVC040
     FM080900 08010KT 3SM -SHSN OVC020
     FM081500 12012KT 6SM -SHSN OVC025
     FM081800 15012KT 6SM -RASN OVC025
     FM082200 16012KT P6SM -FZRA OVC025
     FM090200 17012KT P6SM -SHRA BKN025 OVC100=

USA.gov is the U.S. government's official web portal to all federal, state and local government web resources and services.